In Rescue
 
Open Full Screen Window  High Contrast Mode
Wind Gusting 00 knots
05
March 29, 2020 6:05 PM PDT
Weather Information
Wind Direction
  300 °
Wind Speed
  05 kt (6 mph)
Wind Gust
  00 kt (0 mph)
Altimeter
30.13 in
Visibility
10 SM
Temperature
13° C
55° F
Dewpoint
10° C
50° F
Humidity
82%
1hr Rain Fall
00.00 in.
24hr Rain Fall
00.13 in.
Sky Condition
Clear
VFR

METAR KHAF 300105Z AUTO 30005KT 10SM CLR 13/10 A3013 RMK AO2

FAA Disclaimer: The data displayed is for advisory purposes only and is not to be used for flight planning or operations.